createdAt,value
2023-05-10T00:01:46.391Z,99.90
2023-05-10T00:04:17.780Z,99.90
2023-05-10T00:06:49.068Z,99.90
2023-05-10T00:09:20.544Z,99.90
2023-05-10T00:11:52.831Z,99.90
2023-05-10T00:14:24.727Z,99.90
2023-05-10T00:16:58.385Z,99.90
2023-05-10T00:19:29.714Z,99.90
2023-05-10T00:22:01.135Z,99.90
2023-05-10T00:24:32.676Z,99.90
2023-05-10T00:27:05.765Z,99.90
2023-05-10T00:29:36.768Z,99.90
2023-05-10T00:32:10.621Z,99.90
2023-05-10T00:34:42.433Z,99.90
2023-05-10T00:37:17.754Z,99.90
2023-05-10T00:39:49.052Z,99.90
2023-05-10T00:42:20.153Z,99.90
2023-05-10T00:44:51.653Z,99.90
2023-05-10T00:47:28.143Z,99.90
2023-05-10T00:49:59.747Z,99.90
2023-05-10T00:52:30.947Z,99.90
2023-05-10T00:55:03.695Z,99.90
2023-05-10T00:57:34.696Z,99.90
2023-05-10T01:00:07.164Z,99.90
2023-05-10T01:02:40.667Z,99.90
2023-05-10T01:05:12.200Z,99.90
2023-05-10T01:07:44.760Z,99.90
2023-05-10T01:10:16.522Z,99.90
2023-05-10T01:12:51.332Z,99.90
2023-05-10T01:15:24.192Z,99.90
2023-05-10T01:17:59.130Z,99.90
2023-05-10T01:20:32.431Z,99.90
2023-05-10T01:23:26.842Z,99.90
2023-05-10T01:26:35.768Z,99.90
2023-05-10T01:29:32.757Z,99.90
2023-05-10T01:32:26.494Z,99.90
2023-05-10T01:35:04.275Z,99.90
2023-05-10T01:37:44.960Z,99.90
2023-05-10T01:40:32.806Z,99.90
2023-05-10T01:43:07.808Z,99.90
2023-05-10T01:45:46.216Z,99.90
2023-05-10T01:48:22.051Z,99.90
2023-05-10T01:50:55.801Z,99.90
2023-05-10T01:53:28.253Z,99.90
2023-05-10T01:56:01.200Z,99.90
2023-05-10T01:58:34.733Z,99.90
2023-05-10T02:01:10.151Z,99.90
2023-05-10T02:03:44.751Z,99.90
2023-05-10T02:06:19.407Z,99.90
2023-05-10T02:08:51.827Z,99.90
2023-05-10T02:11:24.107Z,99.90
2023-05-10T02:13:57.434Z,99.90
2023-05-10T02:16:32.598Z,99.90
2023-05-10T02:19:07.298Z,99.90
2023-05-10T02:21:40.690Z,99.90
2023-05-10T02:24:13.928Z,99.90
2023-05-10T02:26:46.213Z,99.90
2023-05-10T02:29:18.325Z,99.90
2023-05-10T02:31:50.298Z,99.90
2023-05-10T02:34:25.596Z,99.90
2023-05-10T02:36:58.296Z,99.90
2023-05-10T02:39:31.196Z,99.90
2023-05-10T02:42:03.591Z,99.90
2023-05-10T02:44:35.900Z,99.90
2023-05-10T02:47:07.036Z,99.90
2023-05-10T02:49:40.227Z,99.90
2023-05-10T02:52:12.744Z,99.90
2023-05-10T02:54:49.519Z,99.90
2023-05-10T02:57:22.969Z,99.90
2023-05-10T02:59:54.230Z,99.90
2023-05-10T03:02:26.251Z,99.90
2023-05-10T03:04:59.970Z,99.90
2023-05-10T03:07:31.970Z,99.90
2023-05-10T03:10:02.920Z,99.90
2023-05-10T03:12:45.868Z,99.90
2023-05-10T03:15:22.801Z,99.90
2023-05-10T03:18:01.042Z,99.90
2023-05-10T03:20:37.769Z,99.90
2023-05-10T03:23:28.266Z,99.90
2023-05-10T03:26:01.204Z,99.90
2023-05-10T03:28:33.817Z,99.90
2023-05-10T03:31:07.793Z,99.90
2023-05-10T03:33:40.473Z,99.90
2023-05-10T03:36:14.270Z,99.90
2023-05-10T03:38:45.464Z,99.90
2023-05-10T03:41:17.878Z,99.90
2023-05-10T03:43:49.433Z,99.90
2023-05-10T03:46:21.092Z,99.90
2023-05-10T03:48:52.895Z,99.90
2023-05-10T03:51:29.971Z,99.90
2023-05-10T03:54:01.039Z,99.90
2023-05-10T03:56:33.328Z,99.90
2023-05-10T03:59:09.788Z,99.90
2023-05-10T04:01:41.314Z,99.90
2023-05-10T04:04:12.420Z,99.90
2023-05-10T04:06:45.858Z,99.90
2023-05-10T04:09:18.323Z,99.90
2023-05-10T04:11:50.004Z,99.90
2023-05-10T04:14:21.887Z,99.90
2023-05-10T04:16:54.055Z,99.90
2023-05-10T04:19:25.918Z,99.90
2023-05-10T04:21:59.801Z,99.90
2023-05-10T04:24:32.143Z,99.90
2023-05-10T04:27:04.290Z,99.90
2023-05-10T04:29:36.239Z,99.90
2023-05-10T04:32:08.016Z,99.90
2023-05-10T04:34:39.531Z,99.90
2023-05-10T04:37:13.540Z,99.90
2023-05-10T04:39:44.853Z,99.90
2023-05-10T04:42:16.980Z,99.90
2023-05-10T04:44:49.861Z,99.90
2023-05-10T04:47:24.128Z,99.90
2023-05-10T04:49:59.281Z,99.90
2023-05-10T04:52:32.852Z,99.90
2023-05-10T04:55:04.981Z,99.90
2023-05-10T04:57:36.534Z,99.90
2023-05-10T05:00:08.424Z,99.90
2023-05-10T05:02:40.320Z,99.90
2023-05-10T05:05:12.534Z,99.90
2023-05-10T05:07:45.727Z,99.90
2023-05-10T05:10:17.743Z,99.90
2023-05-10T05:12:49.839Z,99.90
2023-05-10T05:15:21.767Z,99.90
2023-05-10T05:17:52.905Z,99.90
2023-05-10T05:20:24.734Z,99.90
2023-05-10T05:22:58.190Z,99.90
2023-05-10T05:25:29.463Z,99.90
2023-05-10T05:28:00.888Z,99.90
2023-05-10T05:30:32.345Z,99.90
2023-05-10T05:33:03.444Z,99.90
2023-05-10T05:35:35.170Z,99.90
2023-05-10T05:38:08.766Z,99.90
2023-05-10T05:40:40.614Z,99.90
2023-05-10T05:43:12.096Z,99.90
2023-05-10T05:45:44.174Z,99.90
2023-05-10T05:48:16.017Z,99.90
2023-05-10T05:50:47.583Z,99.90
2023-05-10T05:53:21.027Z,99.90
2023-05-10T05:55:59.291Z,99.90
2023-05-10T05:58:30.948Z,99.90
2023-05-10T06:01:02.481Z,99.90
2023-05-10T06:03:35.623Z,99.90
2023-05-10T06:06:08.336Z,99.90
2023-05-10T06:08:42.289Z,99.90
2023-05-10T06:11:13.940Z,99.90
2023-05-10T06:13:45.843Z,99.90
2023-05-10T06:16:17.307Z,99.90
2023-05-10T06:18:48.858Z,99.90
2023-05-10T06:21:20.665Z,99.90
2023-05-10T06:23:54.896Z,99.90
2023-05-10T06:26:27.468Z,99.90
2023-05-10T06:28:58.853Z,99.90
2023-05-10T06:31:30.518Z,99.90
2023-05-10T06:34:01.741Z,99.90
2023-05-10T06:36:33.251Z,99.90
2023-05-10T06:39:08.666Z,99.90
2023-05-10T06:41:40.100Z,99.90
2023-05-10T06:44:11.571Z,99.90
2023-05-10T06:46:44.220Z,99.90
2023-05-10T06:49:15.810Z,99.90
2023-05-10T06:51:47.884Z,99.90
2023-05-10T06:54:21.788Z,99.90
2023-05-10T06:56:53.198Z,99.90
2023-05-10T06:59:24.790Z,99.90
2023-05-10T07:01:56.319Z,99.90
2023-05-10T07:04:28.103Z,99.90
2023-05-10T07:07:03.310Z,99.90
2023-05-10T07:09:37.167Z,99.90
2023-05-10T07:12:13.411Z,99.90
2023-05-10T07:14:46.402Z,99.90
2023-05-10T07:17:18.317Z,99.90
2023-05-10T07:19:50.468Z,99.90
2023-05-10T07:22:22.028Z,99.90
2023-05-10T07:24:56.946Z,99.90
2023-05-10T07:27:28.351Z,99.90
2023-05-10T07:29:59.842Z,99.90
2023-05-10T07:32:31.699Z,99.90
2023-05-10T07:35:03.169Z,99.90
2023-05-10T07:37:34.574Z,99.90
2023-05-10T07:40:09.228Z,99.90
2023-05-10T07:42:41.576Z,99.90
2023-05-10T07:45:13.831Z,99.90
2023-05-10T07:47:45.011Z,99.90
2023-05-10T07:50:16.572Z,99.90
2023-05-10T07:52:48.472Z,99.90
2023-05-10T07:55:23.830Z,99.90
2023-05-10T07:57:54.871Z,99.90
2023-05-10T08:00:26.292Z,99.90
2023-05-10T08:02:57.691Z,99.90
2023-05-10T08:05:28.956Z,99.90
2023-05-10T08:08:01.499Z,99.90
2023-05-10T08:10:35.650Z,99.90
2023-05-10T08:13:10.799Z,99.90
2023-05-10T08:15:42.239Z,99.90
2023-05-10T08:18:13.787Z,99.90
2023-05-10T08:20:44.724Z,99.90
2023-05-10T08:23:17.699Z,99.90
2023-05-10T08:25:51.262Z,99.90
2023-05-10T08:28:22.256Z,99.90
2023-05-10T08:30:55.472Z,99.90
2023-05-10T08:33:27.011Z,99.90
2023-05-10T08:35:58.254Z,99.90
2023-05-10T08:38:30.005Z,99.90
2023-05-10T08:41:06.704Z,99.90
2023-05-10T08:43:43.576Z,99.90
2023-05-10T08:46:15.648Z,99.90
2023-05-10T08:48:48.459Z,99.90
2023-05-10T08:51:23.200Z,99.90
2023-05-10T08:53:54.983Z,99.90
2023-05-10T08:56:28.890Z,99.90
2023-05-10T08:59:02.410Z,99.90
2023-05-10T09:01:36.285Z,99.90
2023-05-10T09:04:08.365Z,99.90
2023-05-10T09:06:41.080Z,99.90
2023-05-10T09:09:13.473Z,99.90
2023-05-10T09:11:47.241Z,99.90
2023-05-10T09:14:20.051Z,99.90
2023-05-10T09:16:52.329Z,99.90
2023-05-10T09:19:23.813Z,99.90
2023-05-10T09:21:55.353Z,99.90
2023-05-10T09:24:31.078Z,99.90
2023-05-10T09:27:06.427Z,99.90
2023-05-10T09:29:45.322Z,99.90
2023-05-10T09:32:16.742Z,99.90
2023-05-10T09:34:48.170Z,99.90
2023-05-10T09:37:19.613Z,99.90
2023-05-10T09:39:51.575Z,99.90
2023-05-10T09:42:26.236Z,99.90
2023-05-10T09:45:00.753Z,99.90
2023-05-10T09:47:32.461Z,99.90
2023-05-10T09:50:06.667Z,99.90
2023-05-10T09:52:52.581Z,99.90
2023-05-10T09:55:25.150Z,99.90
2023-05-10T09:58:04.791Z,99.90
2023-05-10T10:00:40.380Z,99.90
2023-05-10T10:03:17.002Z,99.90
2023-05-10T10:05:49.337Z,99.90
2023-05-10T10:08:21.511Z,99.90
2023-05-10T10:10:53.750Z,99.90
2023-05-10T10:13:27.557Z,99.90
2023-05-10T10:16:00.316Z,99.90
2023-05-10T10:18:32.228Z,99.90
2023-05-10T10:21:05.100Z,99.90
2023-05-10T10:23:36.626Z,99.90
2023-05-10T10:26:08.987Z,99.90
2023-05-10T10:28:53.937Z,99.90
2023-05-10T10:31:36.946Z,99.90
2023-05-10T10:34:12.890Z,99.90
2023-05-10T10:36:50.159Z,99.90
2023-05-10T10:39:22.595Z,99.90
2023-05-10T10:41:58.257Z,99.90
2023-05-10T10:44:46.778Z,99.90
2023-05-10T10:47:31.786Z,99.90
2023-05-10T10:50:11.422Z,99.90
2023-05-10T10:52:44.074Z,99.90
2023-05-10T10:55:16.796Z,99.90
2023-05-10T10:57:50.835Z,99.90
2023-05-10T11:00:32.931Z,99.90
2023-05-10T11:03:08.576Z,99.90
2023-05-10T11:05:42.294Z,99.90
2023-05-10T11:08:30.625Z,99.90
2023-05-10T11:11:22.715Z,99.90
2023-05-10T11:13:54.222Z,99.90
2023-05-10T11:16:28.997Z,99.90
2023-05-10T11:19:06.041Z,99.90
2023-05-10T11:21:39.384Z,99.90
2023-05-10T11:24:19.472Z,99.90
2023-05-10T11:26:53.563Z,99.90
2023-05-10T11:29:25.303Z,99.90
2023-05-10T11:32:02.643Z,99.90
2023-05-10T11:34:35.507Z,99.90
2023-05-10T11:37:07.004Z,99.90
2023-05-10T11:39:38.508Z,99.90
2023-05-10T11:42:11.498Z,99.90
2023-05-10T11:44:43.122Z,99.90
2023-05-10T11:47:18.816Z,99.90
2023-05-10T11:49:50.548Z,99.90
2023-05-10T11:52:24.223Z,99.90
2023-05-10T11:54:59.115Z,99.90
2023-05-10T11:57:33.269Z,99.90
2023-05-10T12:00:05.801Z,99.90
2023-05-10T12:02:40.513Z,99.90
2023-05-10T12:05:15.022Z,99.90
2023-05-10T12:07:46.630Z,99.90
2023-05-10T12:10:19.751Z,99.90
2023-05-10T12:12:52.164Z,99.90
2023-05-10T12:15:25.291Z,99.90
2023-05-10T12:17:58.686Z,99.90
2023-05-10T12:20:33.022Z,99.90
2023-05-10T12:23:05.418Z,99.90
2023-05-10T12:25:38.411Z,99.90
2023-05-10T12:28:10.999Z,99.90
2023-05-10T12:30:42.475Z,99.90
2023-05-10T12:33:17.112Z,99.90
2023-05-10T12:35:52.980Z,99.90
2023-05-10T12:38:40.999Z,99.90
2023-05-10T12:41:13.587Z,99.90
2023-05-10T12:43:45.451Z,99.90
2023-05-10T12:46:17.836Z,99.90
2023-05-10T12:49:07.991Z,99.90
2023-05-10T12:51:41.227Z,99.90
2023-05-10T12:54:12.686Z,99.90
2023-05-10T12:56:44.638Z,99.90
2023-05-10T12:59:15.935Z,99.90
2023-05-10T13:01:47.281Z,99.90
2023-05-10T13:04:20.826Z,99.90
2023-05-10T13:06:52.158Z,99.90
2023-05-10T13:09:23.495Z,99.90
2023-05-10T13:11:55.403Z,99.90
2023-05-10T13:14:26.992Z,99.90
2023-05-10T13:16:58.243Z,99.90
2023-05-10T13:19:31.627Z,99.90
2023-05-10T13:22:03.399Z,99.90
2023-05-10T13:24:35.576Z,99.90
2023-05-10T13:27:07.113Z,99.90
2023-05-10T13:29:38.454Z,99.90
2023-05-10T13:32:13.829Z,99.90
2023-05-10T13:34:47.528Z,99.90
2023-05-10T13:37:19.196Z,99.90
2023-05-10T13:39:51.008Z,99.90
2023-05-10T13:42:22.989Z,99.90
2023-05-10T13:44:54.308Z,99.90
2023-05-10T13:47:26.028Z,99.90
2023-05-10T13:50:00.409Z,99.90
2023-05-10T13:52:37.520Z,99.90
2023-05-10T13:55:09.377Z,99.90
2023-05-10T13:57:40.873Z,99.90
2023-05-10T14:00:13.649Z,99.90
2023-05-10T14:02:45.031Z,99.90
2023-05-10T14:05:22.221Z,99.90
2023-05-10T14:07:56.551Z,99.90
2023-05-10T14:10:28.335Z,99.90
2023-05-10T14:13:00.510Z,99.90
2023-05-10T14:15:31.474Z,99.90
2023-05-10T14:18:02.792Z,99.90
2023-05-10T14:20:36.095Z,99.90
2023-05-10T14:23:08.013Z,99.90
2023-05-10T14:25:40.407Z,99.90
2023-05-10T14:28:11.693Z,99.90
2023-05-10T14:30:43.118Z,99.90
2023-05-10T14:33:15.195Z,99.90
2023-05-10T14:35:50.107Z,99.90
2023-05-10T14:38:21.523Z,99.90
2023-05-10T14:40:52.817Z,99.90
2023-05-10T14:43:24.122Z,99.90
2023-05-10T14:45:56.151Z,99.90
2023-05-10T14:48:27.435Z,99.90
2023-05-10T14:51:00.820Z,99.90
2023-05-10T14:53:31.820Z,99.90
2023-05-10T14:56:03.583Z,99.90
2023-05-10T14:58:34.874Z,99.90
2023-05-10T15:01:05.611Z,99.90
2023-05-10T15:03:37.613Z,99.90
2023-05-10T15:06:13.801Z,99.90
2023-05-10T15:08:46.058Z,99.90
2023-05-10T15:11:18.018Z,99.90
2023-05-10T15:13:49.321Z,99.90
2023-05-10T15:16:20.578Z,99.90
2023-05-10T15:18:52.006Z,99.90
2023-05-10T15:21:25.396Z,99.90
2023-05-10T15:23:56.668Z,99.90
2023-05-10T15:26:28.141Z,99.90
2023-05-10T15:28:59.902Z,99.90
2023-05-10T15:31:31.201Z,99.90
2023-05-10T15:34:03.484Z,99.90
2023-05-10T15:36:37.282Z,99.90
2023-05-10T15:39:08.488Z,99.90
2023-05-10T15:41:39.833Z,99.90
2023-05-10T15:44:11.550Z,99.90
2023-05-10T15:46:42.593Z,99.90
2023-05-10T15:49:13.728Z,99.90
2023-05-10T15:51:47.082Z,99.90
2023-05-10T15:54:18.582Z,99.90
2023-05-10T15:56:50.316Z,99.90
2023-05-10T15:59:21.968Z,99.90
2023-05-10T16:01:54.374Z,99.90
2023-05-10T16:04:26.500Z,99.90
2023-05-10T16:06:59.629Z,99.90
2023-05-10T16:09:31.426Z,99.90
2023-05-10T16:12:03.166Z,99.90
2023-05-10T16:14:34.605Z,99.90
2023-05-10T16:17:06.970Z,99.90
2023-05-10T16:19:38.787Z,99.90
2023-05-10T16:22:12.521Z,99.90
2023-05-10T16:24:44.096Z,99.90
2023-05-10T16:27:15.614Z,99.90
2023-05-10T16:29:47.055Z,99.90
2023-05-10T16:32:18.540Z,99.90
2023-05-10T16:34:51.202Z,99.90
2023-05-10T16:37:24.795Z,99.90
2023-05-10T16:39:56.238Z,99.90
2023-05-10T16:42:27.667Z,99.90
2023-05-10T16:44:59.167Z,99.90
2023-05-10T16:47:31.233Z,99.90
2023-05-10T16:50:02.890Z,99.90
2023-05-10T16:52:37.136Z,99.90
2023-05-10T16:55:09.964Z,99.90
2023-05-10T16:57:41.398Z,99.90
2023-05-10T17:00:14.711Z,99.90
2023-05-10T17:02:46.404Z,99.90
2023-05-10T17:05:18.694Z,99.90
2023-05-10T17:07:52.384Z,99.90
2023-05-10T17:10:24.037Z,99.90
2023-05-10T17:12:55.557Z,99.90
2023-05-10T17:15:27.912Z,99.90
2023-05-10T17:17:59.513Z,99.90
2023-05-10T17:20:31.292Z,99.90
2023-05-10T17:23:04.759Z,99.90
2023-05-10T17:25:37.726Z,99.90
2023-05-10T17:28:08.627Z,99.90
2023-05-10T17:30:39.807Z,99.90
2023-05-10T17:33:11.290Z,99.90
2023-05-10T17:35:42.756Z,99.90
2023-05-10T17:38:16.214Z,99.90
2023-05-10T17:40:47.522Z,99.90
2023-05-10T17:43:18.813Z,99.90
2023-05-10T17:45:52.723Z,99.90
2023-05-10T17:48:24.494Z,99.90
2023-05-10T17:50:56.785Z,99.90
2023-05-10T17:53:30.461Z,99.90
2023-05-10T17:56:02.649Z,99.90
2023-05-10T17:58:34.235Z,99.90
2023-05-10T18:01:05.965Z,99.90
2023-05-10T18:03:37.695Z,99.90
2023-05-10T18:06:09.492Z,99.90
2023-05-10T18:08:42.628Z,99.90
2023-05-10T18:11:14.019Z,99.90
2023-05-10T18:13:45.700Z,99.90
2023-05-10T18:16:17.206Z,99.90
2023-05-10T18:18:49.286Z,99.90
2023-05-10T18:21:21.177Z,99.90
2023-05-10T18:23:54.862Z,99.90
2023-05-10T18:26:26.378Z,99.90
2023-05-10T18:28:59.408Z,99.90
2023-05-10T18:31:32.759Z,99.90
2023-05-10T18:34:04.228Z,99.90
2023-05-10T18:36:36.487Z,99.90
2023-05-10T18:39:11.032Z,99.90
2023-05-10T18:41:42.135Z,99.90
2023-05-10T18:44:13.957Z,99.90
2023-05-10T18:46:45.557Z,99.90
2023-05-10T18:49:17.919Z,99.90
2023-05-10T18:51:49.370Z,99.90
2023-05-10T18:54:23.699Z,99.90
2023-05-10T18:56:55.125Z,99.90
2023-05-10T18:59:26.248Z,99.90
2023-05-10T19:01:57.756Z,99.90
2023-05-10T19:04:29.462Z,99.90
2023-05-10T19:07:00.921Z,99.90
2023-05-10T19:09:34.505Z,99.90
2023-05-10T19:12:06.092Z,99.90
2023-05-10T19:14:37.533Z,99.90
2023-05-10T19:17:09.393Z,99.90
2023-05-10T19:19:41.928Z,99.90
2023-05-10T19:22:14.089Z,99.90
2023-05-10T19:24:48.207Z,99.90
2023-05-10T19:27:19.104Z,99.90
2023-05-10T19:29:50.613Z,99.90
2023-05-10T19:32:22.309Z,99.90
2023-05-10T19:34:54.377Z,99.90
2023-05-10T19:37:26.578Z,99.90
2023-05-10T19:40:00.151Z,99.90
2023-05-10T19:42:31.701Z,99.90
2023-05-10T19:45:04.901Z,99.90
2023-05-10T19:47:37.198Z,99.90
2023-05-10T19:50:09.788Z,99.90
2023-05-10T19:52:41.102Z,99.90
2023-05-10T19:55:18.260Z,99.90
2023-05-10T19:57:49.959Z,99.90
2023-05-10T20:00:22.021Z,99.90
2023-05-10T20:02:54.381Z,99.90
2023-05-10T20:05:26.136Z,99.90
2023-05-10T20:07:57.281Z,99.90
2023-05-10T20:10:30.463Z,99.90
2023-05-10T20:13:02.456Z,99.90
2023-05-10T20:15:33.707Z,99.90
2023-05-10T20:18:05.187Z,99.90
2023-05-10T20:20:36.662Z,99.90
2023-05-10T20:23:08.112Z,99.90
2023-05-10T20:25:41.553Z,99.90
2023-05-10T20:28:14.250Z,99.90
2023-05-10T20:30:45.906Z,99.90
2023-05-10T20:33:18.351Z,99.90
2023-05-10T20:35:50.062Z,99.90
2023-05-10T20:38:22.297Z,99.90
2023-05-10T20:40:55.732Z,99.90
2023-05-10T20:43:27.146Z,99.90
2023-05-10T20:45:58.870Z,99.90
2023-05-10T20:48:30.368Z,99.90
2023-05-10T20:51:03.353Z,99.90
2023-05-10T20:53:35.165Z,99.90
2023-05-10T20:56:08.905Z,99.90
2023-05-10T20:58:39.965Z,99.90
2023-05-10T21:01:11.618Z,99.90
2023-05-10T21:03:42.909Z,99.90
2023-05-10T21:06:14.376Z,99.90
2023-05-10T21:08:45.796Z,99.90
2023-05-10T21:11:19.343Z,99.90
2023-05-10T21:13:50.744Z,99.90
2023-05-10T21:16:22.029Z,99.90
2023-05-10T21:18:53.416Z,99.90
2023-05-10T21:21:24.806Z,99.90
2023-05-10T21:23:56.028Z,99.90
2023-05-10T21:26:29.735Z,99.90
2023-05-10T21:29:01.245Z,99.90
2023-05-10T21:31:33.226Z,99.90
2023-05-10T21:34:04.699Z,99.90
2023-05-10T21:36:36.177Z,99.90
2023-05-10T21:39:07.995Z,99.90
2023-05-10T21:41:41.213Z,99.90
2023-05-10T21:44:12.726Z,99.90
2023-05-10T21:46:44.262Z,99.90
2023-05-10T21:49:15.840Z,99.90
2023-05-10T21:51:47.306Z,99.90
2023-05-10T21:54:18.859Z,99.90
2023-05-10T21:56:52.577Z,99.90
2023-05-10T21:59:24.441Z,99.90
2023-05-10T22:01:56.460Z,99.90
2023-05-10T22:04:27.509Z,99.90
2023-05-10T22:06:58.848Z,99.90
2023-05-10T22:09:30.104Z,99.90
2023-05-10T22:12:03.646Z,99.90
2023-05-10T22:14:35.064Z,99.90
2023-05-10T22:17:06.574Z,99.90
2023-05-10T22:19:38.585Z,99.90
2023-05-10T22:22:09.830Z,99.90
2023-05-10T22:24:41.477Z,99.90
2023-05-10T22:27:15.964Z,99.90
2023-05-10T22:29:47.952Z,99.90
2023-05-10T22:32:19.661Z,99.90
2023-05-10T22:34:50.476Z,99.90
2023-05-10T22:37:21.323Z,99.90
2023-05-10T22:39:53.693Z,99.90
2023-05-10T22:42:27.213Z,99.90
2023-05-10T22:45:00.407Z,99.90
2023-05-10T22:47:31.841Z,99.90
2023-05-10T22:50:04.471Z,99.90
2023-05-10T22:52:35.907Z,99.90
2023-05-10T22:55:07.541Z,99.90
2023-05-10T22:57:41.599Z,99.90
2023-05-10T23:00:13.944Z,99.90
2023-05-10T23:02:45.816Z,99.90
2023-05-10T23:05:17.337Z,99.90
2023-05-10T23:07:53.882Z,98.80
2023-05-10T23:10:25.290Z,99.90
2023-05-10T23:12:58.518Z,99.40
2023-05-10T23:15:30.798Z,98.40
2023-05-10T23:18:02.469Z,98.70
2023-05-10T23:20:34.159Z,97.80
2023-05-10T23:23:05.014Z,99.90
2023-05-10T23:25:36.512Z,98.70
2023-05-10T23:28:10.127Z,97.40
2023-05-10T23:30:41.749Z,98.10
2023-05-10T23:33:12.715Z,97.70
2023-05-10T23:35:44.530Z,97.50
2023-05-10T23:38:15.546Z,96.10
2023-05-10T23:40:46.709Z,97.80
2023-05-10T23:43:20.846Z,96.30
2023-05-10T23:45:58.941Z,97.40
2023-05-10T23:48:31.089Z,95.90
2023-05-10T23:51:02.089Z,95.10
2023-05-10T23:53:33.252Z,94.90
2023-05-10T23:56:04.008Z,95.30
2023-05-10T23:58:36.572Z,96.20
